Time;durP1;ratioP1;P1;durP2;ratioP2;P2;SDS_P1;SDS_P2;PMS_P1;PMS_P2;Temp;Humidity;BMP_temperature;BMP_pressure;BME280_temperature;BME280_humidity;BME280_pressure;Samples;Min_cycle;Max_cycle;Signal;HPM_P1;HPM_P2
2023/11/14 00:00:06;;;;;;;19.60;2.63;;;;;;;;;;5058729;28;20056;-88
2023/11/14 00:02:32;;;;;;;25.67;2.83;;;;;;;;;;5058118;28;20115;-87
2023/11/14 00:04:57;;;;;;;15.80;2.72;;;;;;;;;;5057095;28;20128;-88
2023/11/14 00:07:22;;;;;;;20.40;2.78;;;;;;;;;;5058039;28;20048;-88
2023/11/14 00:09:48;;;;;;;16.25;2.30;;;;;;;;;;5057229;28;20095;-88
2023/11/14 00:12:13;;;;;;;17.63;3.25;;;;;;;;;;5057682;28;20017;-87
2023/11/14 00:14:42;;;;;;;23.65;2.90;;;;;;;;;;5058762;28;20086;-88
2023/11/14 00:17:08;;;;;;;21.65;2.10;;;;;;;;;;5057575;28;20029;-88
2023/11/14 00:19:33;;;;;;;26.17;2.75;;;;;;;;;;5057753;28;20028;-89
2023/11/14 00:21:59;;;;;;;25.75;3.03;;;;;;;;;;5057968;28;20025;-89
2023/11/14 00:24:25;;;;;;;21.10;3.25;;;;;;;;;;5039410;28;20099;-88
2023/11/14 00:26:50;;;;;;;24.67;2.72;;;;;;;;;;5055486;28;20021;-89
2023/11/14 00:29:15;;;;;;;17.60;3.42;;;;;;;;;;5047940;28;20067;-88
2023/11/14 00:31:41;;;;;;;28.30;3.25;;;;;;;;;;5053619;28;20041;-88
2023/11/14 00:34:06;;;;;;;23.75;3.78;;;;;;;;;;5057336;28;20016;-87
2023/11/14 00:36:31;;;;;;;31.00;2.78;;;;;;;;;;5057549;28;20013;-88
2023/11/14 00:38:59;;;;;;;24.75;2.35;;;;;;;;;;5057585;28;20020;-87
2023/11/14 00:41:25;;;;;;;27.58;2.95;;;;;;;;;;5057253;28;20048;-87
2023/11/14 00:43:50;;;;;;;23.30;2.60;;;;;;;;;;5057400;28;20040;-88
2023/11/14 00:46:16;;;;;;;26.30;2.90;;;;;;;;;;5057982;28;20021;-88
2023/11/14 00:48:42;;;;;;;21.25;2.60;;;;;;;;;;5052732;28;20021;-88
2023/11/14 00:51:11;;;;;;;26.33;3.47;;;;;;;;;;5054102;28;20070;-87
2023/11/14 00:53:36;;;;;;;24.50;3.03;;;;;;;;;;5053441;28;20025;-88
2023/11/14 00:56:01;;;;;;;20.48;3.42;;;;;;;;;;5055566;28;20008;-86
2023/11/14 00:58:27;;;;;;;24.95;3.55;;;;;;;;;;5054323;28;20020;-88
2023/11/14 01:00:53;;;;;;;21.08;2.60;;;;;;;;;;5054075;28;20023;-88
2023/11/14 01:03:20;;;;;;;25.73;4.40;;;;;;;;;;5053779;28;20020;-88
2023/11/14 01:05:46;;;;;;;17.83;2.45;;;;;;;;;;5053938;28;20017;-87
2023/11/14 01:08:12;;;;;;;25.05;2.42;;;;;;;;;;5054285;28;20081;-88
2023/11/14 01:10:37;;;;;;;20.17;3.28;;;;;;;;;;5054566;28;20032;-87
2023/11/14 01:13:03;;;;;;;24.63;2.72;;;;;;;;;;5053837;28;20072;-88
2023/11/14 01:15:28;;;;;;;18.13;3.05;;;;;;;;;;5053867;28;20056;-88
2023/11/14 01:17:54;;;;;;;19.77;2.97;;;;;;;;;;5054726;28;20025;-88
2023/11/14 01:20:19;;;;;;;19.30;2.90;;;;;;;;;;5054728;28;20013;-88
2023/11/14 01:22:44;;;;;;;21.88;3.70;;;;;;;;;;5055130;28;20028;-87
2023/11/14 01:25:11;;;;;;;24.38;2.92;;;;;;;;;;5053656;28;20469;-88
2023/11/14 01:27:36;;;;;;;28.48;3.72;;;;;;;;;;5053441;28;20384;-88
2023/11/14 01:30:02;;;;;;;29.92;3.95;;;;;;;;;;5053292;28;20025;-87
2023/11/14 01:32:27;;;;;;;22.58;2.47;;;;;;;;;;5053530;28;20009;-88
2023/11/14 01:34:53;;;;;;;23.42;3.35;;;;;;;;;;5054434;28;20070;-88
2023/11/14 01:37:18;;;;;;;28.38;2.92;;;;;;;;;;5054560;28;20013;-89
2023/11/14 01:39:45;;;;;;;19.75;2.65;;;;;;;;;;5053018;28;20020;-89
2023/11/14 01:42:10;;;;;;;25.48;2.78;;;;;;;;;;5054686;28;20020;-87
2023/11/14 01:44:35;;;;;;;19.15;2.83;;;;;;;;;;5053213;28;20445;-87
2023/11/14 01:47:00;;;;;;;23.98;3.08;;;;;;;;;;5053288;28;20453;-87
2023/11/14 01:49:26;;;;;;;34.17;3.40;;;;;;;;;;5054041;28;20047;-87
2023/11/14 01:51:51;;;;;;;24.92;3.05;;;;;;;;;;5054221;28;20097;-88
2023/11/14 01:54:16;;;;;;;19.33;3.20;;;;;;;;;;5052690;28;20017;-88
2023/11/14 01:56:42;;;;;;;19.70;2.75;;;;;;;;;;5053149;28;20482;-87
2023/11/14 01:59:08;;;;;;;12.30;2.88;;;;;;;;;;5052625;28;20020;-88
2023/11/14 02:01:34;;;;;;;21.98;2.92;;;;;;;;;;5053305;28;20029;-88
2023/11/14 02:04:00;;;;;;;25.30;2.60;;;;;;;;;;5052378;28;20115;-88
2023/11/14 02:06:25;;;;;;;27.52;3.25;;;;;;;;;;5052818;28;20143;-88
2023/11/14 02:08:51;;;;;;;21.27;2.95;;;;;;;;;;5052884;28;20060;-88
2023/11/14 02:11:16;;;;;;;21.30;2.58;;;;;;;;;;5047614;28;20048;-87
2023/11/14 02:13:45;;;;;;;23.65;2.47;;;;;;;;;;5044556;28;20155;-88
2023/11/14 02:16:10;;;;;;;24.33;2.75;;;;;;;;;;5052417;28;20056;-88
2023/11/14 02:18:36;;;;;;;27.38;2.80;;;;;;;;;;5054086;28;20404;-88
2023/11/14 02:21:01;;;;;;;26.02;2.75;;;;;;;;;;5052560;28;20032;-86
2023/11/14 02:23:29;;;;;;;26.40;2.80;;;;;;;;;;5052775;28;20025;-88
2023/11/14 02:25:54;;;;;;;24.75;2.55;;;;;;;;;;5052349;28;20388;-88
2023/11/14 02:28:19;;;;;;;20.33;2.63;;;;;;;;;;5038550;28;20026;-88
2023/11/14 02:30:45;;;;;;;21.23;2.35;;;;;;;;;;5044973;28;20111;-87
2023/11/14 02:33:10;;;;;;;23.52;3.15;;;;;;;;;;5046538;28;20025;-88
2023/11/14 02:35:35;;;;;;;23.70;2.95;;;;;;;;;;5052290;28;20127;-87
2023/11/14 02:38:00;;;;;;;29.45;3.25;;;;;;;;;;5052815;28;20021;-89
2023/11/14 02:40:26;;;;;;;19.20;3.13;;;;;;;;;;5050132;28;20064;-87
2023/11/14 02:42:52;;;;;;;23.17;2.50;;;;;;;;;;5053664;28;20025;-87
2023/11/14 02:45:17;;;;;;;23.20;2.33;;;;;;;;;;5052365;28;20021;-87
2023/11/14 02:47:51;;;;;;;19.58;2.28;;;;;;;;;;5052341;28;20053;-87
2023/11/14 02:50:20;;;;;;;25.40;2.60;;;;;;;;;;5051717;28;20039;-87
2023/11/14 02:52:46;;;;;;;22.63;2.67;;;;;;;;;;5053236;28;20325;-87
2023/11/14 02:55:11;;;;;;;20.63;3.13;;;;;;;;;;5053169;28;20016;-87
2023/11/14 02:57:36;;;;;;;26.75;3.45;;;;;;;;;;5053320;28;20100;-87
2023/11/14 03:00:04;;;;;;;23.48;3.47;;;;;;;;;;5051719;28;20033;-86
2023/11/14 03:02:29;;;;;;;24.58;3.08;;;;;;;;;;5051528;28;20032;-87
2023/11/14 03:04:54;;;;;;;30.73;3.15;;;;;;;;;;5051778;28;20037;-88
2023/11/14 03:07:19;;;;;;;20.70;3.17;;;;;;;;;;5053090;28;20029;-87
2023/11/14 03:09:45;;;;;;;22.08;2.95;;;;;;;;;;5051230;28;20079;-88
2023/11/14 03:12:10;;;;;;;23.00;2.53;;;;;;;;;;5052413;28;20017;-88
2023/11/14 03:14:36;;;;;;;19.63;2.30;;;;;;;;;;5053870;28;20017;-87
2023/11/14 03:17:01;;;;;;;21.80;2.60;;;;;;;;;;5063059;28;20469;-88
2023/11/14 03:19:29;;;;;;;22.55;2.95;;;;;;;;;;5054202;28;20013;-88
2023/11/14 03:21:54;;;;;;;17.75;2.17;;;;;;;;;;5063648;28;20380;-87
2023/11/14 03:24:19;;;;;;;21.20;3.28;;;;;;;;;;5052610;28;20024;-88
2023/11/14 03:26:45;;;;;;;27.58;2.65;;;;;;;;;;5051347;28;20025;-87
2023/11/14 03:29:10;;;;;;;30.70;3.08;;;;;;;;;;5050967;28;20063;-87
2023/11/14 03:31:36;;;;;;;24.17;3.72;;;;;;;;;;5051485;28;20028;-87
2023/11/14 03:34:01;;;;;;;20.38;2.75;;;;;;;;;;5052447;28;20017;-87
2023/11/14 03:36:26;;;;;;;13.55;2.30;;;;;;;;;;5051477;28;20048;-87
2023/11/14 03:38:52;;;;;;;19.08;2.58;;;;;;;;;;5050958;28;20025;-87
2023/11/14 03:41:17;;;;;;;21.25;2.85;;;;;;;;;;5051205;28;20023;-87
2023/11/14 03:43:42;;;;;;;19.25;2.97;;;;;;;;;;5051441;28;20563;-88
2023/11/14 03:46:07;;;;;;;18.42;2.17;;;;;;;;;;5051434;28;20017;-86
2023/11/14 03:48:32;;;;;;;20.20;3.95;;;;;;;;;;5051083;28;20048;-87
2023/11/14 03:50:58;;;;;;;20.38;2.75;;;;;;;;;;5051030;28;20017;-88
2023/11/14 03:53:23;;;;;;;19.88;2.55;;;;;;;;;;5051106;28;20105;-89
2023/11/14 03:55:49;;;;;;;26.63;3.58;;;;;;;;;;5052370;28;20040;-88
2023/11/14 03:58:14;;;;;;;21.83;2.25;;;;;;;;;;5051369;28;20076;-88
2023/11/14 04:00:39;;;;;;;23.75;3.00;;;;;;;;;;5052496;28;20039;-88
2023/11/14 04:03:05;;;;;;;33.10;4.13;;;;;;;;;;5050921;28;20047;-88
2023/11/14 04:05:30;;;;;;;17.52;3.13;;;;;;;;;;5051412;28;20025;-88
2023/11/14 04:07:55;;;;;;;23.65;2.78;;;;;;;;;;5051209;28;20462;-88
2023/11/14 04:10:21;;;;;;;21.27;2.00;;;;;;;;;;5051127;28;20028;-87
2023/11/14 04:12:46;;;;;;;19.05;2.33;;;;;;;;;;5051404;28;20464;-87
2023/11/14 04:15:11;;;;;;;20.70;2.72;;;;;;;;;;5047333;28;20017;-88
2023/11/14 04:17:38;;;;;;;28.02;3.17;;;;;;;;;;5040717;28;20075;-87
2023/11/14 04:20:05;;;;;;;23.33;2.63;;;;;;;;;;5050716;28;20526;-87
2023/11/14 04:22:30;;;;;;;19.48;2.53;;;;;;;;;;5053282;28;20141;-87
2023/11/14 04:24:58;;;;;;;25.67;4.28;;;;;;;;;;5054651;28;20044;-87
2023/11/14 04:27:24;;;;;;;21.98;2.63;;;;;;;;;;5053297;28;20059;-87
2023/11/14 04:29:49;;;;;;;18.83;2.65;;;;;;;;;;5068586;28;20451;-88
2023/11/14 04:32:15;;;;;;;19.95;2.65;;;;;;;;;;5063042;28;20021;-88
2023/11/14 04:34:40;;;;;;;21.27;2.33;;;;;;;;;;5053819;28;20017;-88
2023/11/14 04:37:09;;;;;;;26.90;3.55;;;;;;;;;;5055604;28;20021;-87
2023/11/14 04:39:37;;;;;;;16.60;3.15;;;;;;;;;;5054242;28;20040;-88
2023/11/14 04:42:03;;;;;;;24.70;2.78;;;;;;;;;;5054621;28;20032;-88
2023/11/14 04:44:28;;;;;;;25.02;3.70;;;;;;;;;;5054331;28;20033;-88
2023/11/14 04:46:54;;;;;;;20.27;2.75;;;;;;;;;;5074402;28;20530;-87
2023/11/14 04:49:20;;;;;;;23.77;2.60;;;;;;;;;;5061495;28;20097;-88
2023/11/14 04:51:45;;;;;;;16.23;2.83;;;;;;;;;;5054480;28;20043;-88
2023/11/14 04:54:10;;;;;;;25.58;2.13;;;;;;;;;;5054418;28;20028;-88
2023/11/14 04:56:35;;;;;;;22.75;2.70;;;;;;;;;;5056259;28;20017;-88
2023/11/14 04:59:03;;;;;;;21.50;2.65;;;;;;;;;;5074142;28;20391;-88
2023/11/14 05:01:28;;;;;;;16.58;3.00;;;;;;;;;;5061050;28;20025;-88
2023/11/14 05:03:54;;;;;;;24.48;3.13;;;;;;;;;;5067480;28;20086;-88
2023/11/14 05:06:19;;;;;;;21.02;3.15;;;;;;;;;;5053480;28;20051;-88
2023/11/14 05:08:44;;;;;;;26.30;2.47;;;;;;;;;;5053607;28;20085;-88
2023/11/14 05:11:09;;;;;;;18.23;2.88;;;;;;;;;;5065219;28;20058;-88
2023/11/14 05:13:35;;;;;;;22.13;3.20;;;;;;;;;;5057715;28;20025;-88
2023/11/14 05:16:01;;;;;;;19.80;3.78;;;;;;;;;;5061602;28;20448;-87
2023/11/14 05:18:27;;;;;;;30.30;4.43;;;;;;;;;;5072094;28;20020;-88
2023/11/14 05:20:52;;;;;;;22.00;3.20;;;;;;;;;;5054671;28;20025;-88
2023/11/14 05:23:17;;;;;;;19.33;3.03;;;;;;;;;;5054262;28;20166;-87
2023/11/14 05:25:43;;;;;;;23.27;3.20;;;;;;;;;;5053213;28;20057;-87
2023/11/14 05:28:10;;;;;;;31.60;3.65;;;;;;;;;;5053390;28;20025;-88
2023/11/14 05:30:36;;;;;;;23.20;4.00;;;;;;;;;;5053918;28;20349;-88
2023/11/14 05:33:02;;;;;;;21.45;3.17;;;;;;;;;;5053706;28;20021;-87
2023/11/14 05:35:28;;;;;;;22.40;2.97;;;;;;;;;;5053830;28;20449;-88
2023/11/14 05:37:53;;;;;;;19.90;3.40;;;;;;;;;;5055001;28;20028;-87
2023/11/14 05:40:22;;;;;;;35.63;3.35;;;;;;;;;;5053428;28;20033;-87
2023/11/14 05:42:47;;;;;;;26.52;2.85;;;;;;;;;;5054354;28;20017;-87
2023/11/14 05:45:13;;;;;;;20.77;3.67;;;;;;;;;;5053239;28;20025;-87
2023/11/14 05:47:40;;;;;;;18.55;2.67;;;;;;;;;;5054241;28;20056;-87
2023/11/14 05:50:06;;;;;;;22.88;2.60;;;;;;;;;;5053140;28;20483;-86
2023/11/14 05:52:31;;;;;;;24.35;3.20;;;;;;;;;;5053236;28;20021;-87
2023/11/14 05:54:57;;;;;;;24.50;2.55;;;;;;;;;;5053433;28;20032;-87
2023/11/14 05:57:22;;;;;;;21.33;3.17;;;;;;;;;;5053244;28;20423;-87
2023/11/14 05:59:50;;;;;;;21.17;2.38;;;;;;;;;;5039151;28;20027;-89
2023/11/14 06:02:15;;;;;;;20.63;2.85;;;;;;;;;;5052921;28;20425;-88
2023/11/14 06:04:44;;;;;;;21.30;2.13;;;;;;;;;;5038768;28;20465;-89
2023/11/14 06:07:12;;;;;;;22.17;2.38;;;;;;;;;;5053321;28;20021;-89
2023/11/14 06:09:37;;;;;;;20.20;2.92;;;;;;;;;;5052545;28;20055;-88
2023/11/14 06:12:03;;;;;;;21.33;2.65;;;;;;;;;;5053311;28;20101;-88
2023/11/14 06:14:28;;;;;;;29.75;3.00;;;;;;;;;;5052510;28;20176;-88
2023/11/14 06:16:53;;;;;;;21.80;2.97;;;;;;;;;;5052580;28;20048;-89
2023/11/14 06:19:18;;;;;;;22.88;2.70;;;;;;;;;;5052458;28;20048;-89
2023/11/14 06:21:44;;;;;;;23.02;3.85;;;;;;;;;;5052282;28;20416;-88
2023/11/14 06:24:09;;;;;;;25.83;3.38;;;;;;;;;;5052588;28;20353;-88
2023/11/14 06:26:34;;;;;;;22.80;3.20;;;;;;;;;;5053852;28;20028;-87
2023/11/14 06:28:59;;;;;;;22.23;3.10;;;;;;;;;;5053530;28;20025;-88
2023/11/14 06:31:25;;;;;;;20.27;2.83;;;;;;;;;;5052823;28;20100;-90
2023/11/14 06:33:50;;;;;;;32.47;3.50;;;;;;;;;;5051843;28;20049;-89
2023/11/14 06:36:22;;;;;;;27.50;3.75;;;;;;;;;;5052497;28;20025;-89
2023/11/14 06:38:47;;;;;;;25.40;3.33;;;;;;;;;;5052238;28;20025;-90
2023/11/14 06:41:12;;;;;;;22.25;4.00;;;;;;;;;;5051685;28;20092;-88
2023/11/14 06:43:38;;;;;;;21.35;2.70;;;;;;;;;;5051675;28;20033;-88
2023/11/14 06:46:06;;;;;;;16.30;2.45;;;;;;;;;;5050194;28;20025;-88
2023/11/14 06:48:32;;;;;;;31.27;3.00;;;;;;;;;;5052372;28;20724;-89
2023/11/14 06:50:57;;;;;;;23.02;2.80;;;;;;;;;;5052054;28;20073;-87
2023/11/14 06:53:22;;;;;;;17.67;2.08;;;;;;;;;;5052330;28;20017;-88
2023/11/14 06:55:50;;;;;;;24.83;3.63;;;;;;;;;;5052005;28;20095;-88
2023/11/14 06:58:16;;;;;;;21.42;2.78;;;;;;;;;;5051249;28;20447;-87
2023/11/14 07:00:42;;;;;;;21.42;2.35;;;;;;;;;;5053116;28;20025;-87
2023/11/14 07:03:08;;;;;;;13.85;2.85;;;;;;;;;;5051841;28;20100;-87
2023/11/14 07:05:34;;;;;;;23.13;3.50;;;;;;;;;;5051791;28;20029;-87
2023/11/14 07:08:00;;;;;;;17.30;2.13;;;;;;;;;;5053285;28;20107;-88
2023/11/14 07:10:25;;;;;;;20.40;2.63;;;;;;;;;;5052949;28;20025;-87
2023/11/14 07:12:51;;;;;;;21.55;2.67;;;;;;;;;;5053074;28;20096;-88
2023/11/14 07:15:20;;;;;;;22.65;3.15;;;;;;;;;;5053655;28;20052;-87
2023/11/14 07:17:46;;;;;;;26.17;3.03;;;;;;;;;;5051757;28;20033;-88
2023/11/14 07:20:12;;;;;;;20.58;3.05;;;;;;;;;;5051627;28;20086;-88
2023/11/14 07:22:40;;;;;;;14.23;2.58;;;;;;;;;;5046455;28;20025;-87
2023/11/14 07:25:06;;;;;;;16.92;2.60;;;;;;;;;;5051664;28;20427;-88
2023/11/14 07:27:31;;;;;;;12.40;2.28;;;;;;;;;;5051624;28;20024;-87
2023/11/14 07:29:56;;;;;;;17.52;2.60;;;;;;;;;;5048582;28;20143;-88
2023/11/14 07:32:21;;;;;;;17.73;2.85;;;;;;;;;;5050421;28;20488;-88
2023/11/14 07:34:47;;;;;;;14.63;2.38;;;;;;;;;;5050232;28;20017;-88
2023/11/14 07:37:12;;;;;;;18.27;2.78;;;;;;;;;;5038017;28;20125;-88
2023/11/14 07:39:37;;;;;;;20.17;2.75;;;;;;;;;;5051736;28;20029;-88
2023/11/14 07:42:05;;;;;;;21.20;2.85;;;;;;;;;;5053427;28;20021;-89
2023/11/14 07:44:31;;;;;;;22.85;3.03;;;;;;;;;;5052620;28;20040;-88
2023/11/14 07:46:56;;;;;;;21.88;2.03;;;;;;;;;;5052162;28;20029;-87
2023/11/14 07:49:22;;;;;;;19.77;2.35;;;;;;;;;;5051540;28;20029;-88
2023/11/14 07:51:48;;;;;;;21.40;3.35;;;;;;;;;;5052746;28;20096;-87
2023/11/14 07:54:14;;;;;;;20.67;2.85;;;;;;;;;;5051328;28;20112;-89
2023/11/14 07:56:42;;;;;;;18.02;2.90;;;;;;;;;;5052540;28;20021;-88
2023/11/14 07:59:08;;;;;;;20.45;3.58;;;;;;;;;;5055084;28;20036;-88
2023/11/14 08:01:34;;;;;;;23.60;2.55;;;;;;;;;;5055069;28;20039;-88
2023/11/14 08:03:59;;;;;;;21.25;2.65;;;;;;;;;;5055001;28;20057;-87
2023/11/14 08:06:25;;;;;;;21.92;2.80;;;;;;;;;;5056373;28;20037;-88
2023/11/14 08:08:50;;;;;;;20.73;2.97;;;;;;;;;;5056136;28;20033;-88
2023/11/14 08:11:16;;;;;;;17.52;2.78;;;;;;;;;;5055077;28;20112;-88
2023/11/14 08:13:41;;;;;;;30.67;2.20;;;;;;;;;;5054963;28;20024;-88
2023/11/14 08:16:07;;;;;;;17.67;2.55;;;;;;;;;;5054864;28;20393;-88
2023/11/14 08:18:32;;;;;;;19.55;2.53;;;;;;;;;;5057118;28;20162;-89
2023/11/14 08:20:57;;;;;;;15.25;2.35;;;;;;;;;;5066592;28;20025;-88
2023/11/14 08:23:22;;;;;;;17.58;2.50;;;;;;;;;;5054642;28;20040;-88
2023/11/14 08:25:48;;;;;;;25.65;2.63;;;;;;;;;;5054549;28;20025;-88
2023/11/14 08:28:13;;;;;;;21.52;3.35;;;;;;;;;;5054914;28;20056;-88
2023/11/14 08:30:38;;;;;;;16.38;2.08;;;;;;;;;;5054224;28;20028;-88
2023/11/14 08:33:03;;;;;;;28.08;3.25;;;;;;;;;;5055948;28;20067;-88
2023/11/14 08:35:29;;;;;;;17.00;2.22;;;;;;;;;;5054701;28;20021;-88
2023/11/14 08:37:54;;;;;;;19.88;2.83;;;;;;;;;;5054957;28;20440;-88
2023/11/14 08:40:20;;;;;;;25.00;3.38;;;;;;;;;;5054221;28;20025;-88
2023/11/14 08:42:48;;;;;;;19.15;2.60;;;;;;;;;;5054219;28;20358;-87
2023/11/14 08:45:14;;;;;;;26.55;3.42;;;;;;;;;;5055561;28;20381;-88
2023/11/14 08:47:39;;;;;;;17.45;2.35;;;;;;;;;;5054551;28;20021;-88
2023/11/14 08:50:05;;;;;;;24.10;3.42;;;;;;;;;;5053939;28;20093;-88
2023/11/14 08:52:30;;;;;;;18.42;2.22;;;;;;;;;;5052379;28;20362;-88
2023/11/14 08:54:57;;;;;;;18.52;2.78;;;;;;;;;;5042459;28;20021;-88
2023/11/14 08:57:22;;;;;;;10.73;2.05;;;;;;;;;;5054101;28;20436;-88
2023/11/14 08:59:47;;;;;;;16.45;2.17;;;;;;;;;;5054186;28;20131;-88
2023/11/14 09:02:13;;;;;;;22.13;2.83;;;;;;;;;;5054335;28;20036;-88
2023/11/14 09:04:38;;;;;;;17.05;2.42;;;;;;;;;;5053713;28;20380;-87
2023/11/14 09:07:04;;;;;;;15.60;2.42;;;;;;;;;;5054376;28;20017;-88
2023/11/14 09:09:29;;;;;;;19.58;2.28;;;;;;;;;;5052747;28;20025;-88
2023/11/14 09:11:54;;;;;;;19.35;2.25;;;;;;;;;;5054304;28;20029;-88
2023/11/14 09:14:20;;;;;;;18.73;3.10;;;;;;;;;;5054141;28;20381;-88
2023/11/14 09:16:45;;;;;;;20.13;2.92;;;;;;;;;;5053944;28;20048;-88
2023/11/14 09:19:10;;;;;;;15.27;2.60;;;;;;;;;;5053718;28;20117;-88
2023/11/14 09:21:36;;;;;;;29.60;3.65;;;;;;;;;;5040359;28;20033;-88
2023/11/14 09:24:04;;;;;;;23.20;2.90;;;;;;;;;;5051928;28;20021;-88
2023/11/14 09:26:29;;;;;;;17.52;3.05;;;;;;;;;;5053763;28;20442;-88
2023/11/14 09:28:55;;;;;;;19.20;2.90;;;;;;;;;;5039572;28;20025;-88
2023/11/14 09:31:20;;;;;;;15.00;3.33;;;;;;;;;;5053633;28;20017;-88
2023/11/14 09:33:46;;;;;;;16.48;2.78;;;;;;;;;;5054859;28;20017;-88
2023/11/14 09:36:11;;;;;;;17.48;2.50;;;;;;;;;;5053746;28;20017;-88
2023/11/14 09:38:38;;;;;;;20.60;2.95;;;;;;;;;;5053574;28;20039;-88
2023/11/14 09:41:04;;;;;;;20.10;2.50;;;;;;;;;;5053150;28;20388;-90
2023/11/14 09:43:29;;;;;;;23.58;2.83;;;;;;;;;;5054354;28;20479;-88
2023/11/14 09:45:57;;;;;;;16.25;2.65;;;;;;;;;;5053121;28;20021;-87
2023/11/14 09:48:22;;;;;;;20.75;2.22;;;;;;;;;;5053299;28;20021;-89
2023/11/14 09:50:48;;;;;;;17.80;2.58;;;;;;;;;;5052922;28;20029;-87
2023/11/14 09:53:13;;;;;;;18.67;2.40;;;;;;;;;;5053271;28;20083;-86
2023/11/14 09:55:39;;;;;;;14.68;1.73;;;;;;;;;;5053162;28;20541;-87
2023/11/14 09:58:07;;;;;;;13.85;2.22;;;;;;;;;;5054257;28;20090;-87
2023/11/14 10:00:42;;;;;;;16.80;2.10;;;;;;;;;;5052616;28;20033;-87
2023/11/14 10:03:07;;;;;;;17.70;2.78;;;;;;;;;;5052996;28;20017;-87
2023/11/14 10:05:34;;;;;;;10.07;1.67;;;;;;;;;;5054219;28;20150;-88
2023/11/14 10:08:00;;;;;;;11.18;1.75;;;;;;;;;;5052850;28;20453;-88
2023/11/14 10:10:26;;;;;;;17.15;2.22;;;;;;;;;;5053656;28;20017;-88
2023/11/14 10:12:52;;;;;;;8.85;1.30;;;;;;;;;;5039764;28;20450;-88
2023/11/14 10:15:30;;;;;;;15.82;1.83;;;;;;;;;;5052880;28;20108;-88
2023/11/14 10:17:56;;;;;;;10.63;1.33;;;;;;;;;;5053887;28;20079;-88
2023/11/14 10:20:21;;;;;;;8.85;1.52;;;;;;;;;;5052040;28;20013;-87
2023/11/14 10:22:46;;;;;;;9.10;1.40;;;;;;;;;;5052543;28;20177;-87
2023/11/14 10:25:25;;;;;;;8.77;1.60;;;;;;;;;;5052761;28;20021;-87
2023/11/14 10:28:06;;;;;;;12.23;1.20;;;;;;;;;;5052780;28;20025;-88
2023/11/14 10:30:53;;;;;;;7.55;1.05;;;;;;;;;;5051907;28;20418;-88
2023/11/14 10:33:18;;;;;;;7.18;1.27;;;;;;;;;;5052327;28;20611;-88
2023/11/14 10:35:45;;;;;;;9.20;1.20;;;;;;;;;;5053436;28;20480;-87
2023/11/14 10:38:15;;;;;;;2.97;0.70;;;;;;;;;;5052322;28;20016;-88
2023/11/14 10:40:44;;;;;;;4.53;1.20;;;;;;;;;;5053528;28;20128;-89
2023/11/14 10:43:10;;;;;;;6.85;0.90;;;;;;;;;;5052227;28;20422;-88
2023/11/14 10:45:38;;;;;;;6.22;0.70;;;;;;;;;;5051757;28;20058;-88
2023/11/14 10:48:04;;;;;;;3.67;1.00;;;;;;;;;;5051545;28;20020;-88
2023/11/14 10:50:31;;;;;;;4.88;0.77;;;;;;;;;;5051217;28;20040;-88
2023/11/14 10:52:56;;;;;;;5.40;0.90;;;;;;;;;;5051965;28;20376;-88
2023/11/14 10:55:22;;;;;;;5.00;1.30;;;;;;;;;;5048556;28;20022;-88
2023/11/14 10:57:49;;;;;;;5.20;1.13;;;;;;;;;;5049153;28;20055;-87
2023/11/14 11:00:14;;;;;;;5.45;1.23;;;;;;;;;;5051764;28;20426;-88
2023/11/14 11:02:40;;;;;;;8.60;1.40;;;;;;;;;;5051545;28;20024;-88
2023/11/14 11:05:09;;;;;;;3.47;1.10;;;;;;;;;;5045283;28;20096;-88
2023/11/14 11:07:37;;;;;;;6.97;1.05;;;;;;;;;;5045705;28;20021;-89
2023/11/14 11:10:03;;;;;;;10.13;1.25;;;;;;;;;;5051441;28;20372;-89
2023/11/14 11:12:30;;;;;;;6.75;1.65;;;;;;;;;;5051971;28;20368;-89
2023/11/14 11:14:56;;;;;;;6.47;1.90;;;;;;;;;;5050933;28;20017;-89
2023/11/14 11:17:42;;;;;;;4.95;1.50;;;;;;;;;;5051014;28;20102;-89
2023/11/14 11:20:12;;;;;;;5.88;1.20;;;;;;;;;;5045229;28;20047;-89
2023/11/14 11:22:56;;;;;;;5.97;1.27;;;;;;;;;;5051667;28;20461;-91
2023/11/14 11:25:26;;;;;;;10.75;1.58;;;;;;;;;;5051348;28;20021;-92
2023/11/14 11:27:57;;;;;;;7.38;0.85;;;;;;;;;;5042108;28;20484;-90
2023/11/14 11:30:23;;;;;;;4.60;1.10;;;;;;;;;;5051331;28;20603;-91
2023/11/14 11:32:54;;;;;;;8.05;1.23;;;;;;;;;;5051787;28;20016;-88
2023/11/14 11:35:19;;;;;;;3.63;1.13;;;;;;;;;;5047027;28;20036;-88
2023/11/14 11:37:58;;;;;;;3.80;0.80;;;;;;;;;;5052659;28;20017;-87
2023/11/14 11:40:28;;;;;;;4.80;0.80;;;;;;;;;;5052349;28;20021;-88
2023/11/14 11:42:58;;;;;;;7.38;1.63;;;;;;;;;;5052382;28;20021;-88
2023/11/14 11:45:30;;;;;;;5.22;1.17;;;;;;;;;;5052304;28;20025;-88
2023/11/14 11:47:57;;;;;;;3.40;0.82;;;;;;;;;;5052527;28;20047;-88
2023/11/14 11:50:29;;;;;;;9.43;1.17;;;;;;;;;;5050775;28;20021;-88
2023/11/14 11:53:01;;;;;;;9.45;1.17;;;;;;;;;;5036893;28;20139;-87
2023/11/14 11:55:27;;;;;;;7.68;1.23;;;;;;;;;;5051711;28;20017;-88
2023/11/14 11:57:59;;;;;;;8.13;1.60;;;;;;;;;;5050798;28;20024;-88
2023/11/14 12:00:24;;;;;;;8.18;1.50;;;;;;;;;;5051225;28;20083;-89
2023/11/14 12:02:50;;;;;;;13.00;1.70;;;;;;;;;;5051946;28;20020;-88
2023/11/14 12:05:17;;;;;;;11.18;1.50;;;;;;;;;;5050416;28;20017;-88
2023/11/14 12:07:42;;;;;;;12.38;1.77;;;;;;;;;;5050854;28;20025;-89
2023/11/14 12:10:07;;;;;;;21.90;2.10;;;;;;;;;;5050670;28;20024;-89
2023/11/14 12:12:40;;;;;;;16.33;2.50;;;;;;;;;;5052494;28;20017;-89
2023/11/14 12:15:09;;;;;;;16.48;2.15;;;;;;;;;;5051058;28;20047;-88
2023/11/14 12:17:35;;;;;;;7.97;1.90;;;;;;;;;;5051831;28;20033;-87
2023/11/14 12:20:00;;;;;;;9.52;2.03;;;;;;;;;;5050138;28;20439;-88
2023/11/14 12:22:29;;;;;;;13.90;2.13;;;;;;;;;;5050850;28;20021;-88
2023/11/14 12:24:58;;;;;;;8.43;1.90;;;;;;;;;;5050182;28;20104;-88
2023/11/14 12:27:24;;;;;;;12.57;1.92;;;;;;;;;;5049713;28;20021;-87
2023/11/14 12:30:04;;;;;;;13.57;2.40;;;;;;;;;;5049979;28;20028;-86
2023/11/14 12:32:29;;;;;;;14.55;2.88;;;;;;;;;;5050091;28;20020;-87
2023/11/14 12:34:58;;;;;;;15.80;2.80;;;;;;;;;;5050432;28;20028;-87
2023/11/14 12:37:23;;;;;;;9.40;1.77;;;;;;;;;;5050131;28;20104;-87
2023/11/14 12:40:06;;;;;;;11.38;2.60;;;;;;;;;;5050444;28;20052;-87
2023/11/14 12:42:32;;;;;;;15.05;2.60;;;;;;;;;;5047182;28;20385;-86
2023/11/14 12:44:58;;;;;;;10.25;2.17;;;;;;;;;;5054519;28;20529;-86
2023/11/14 12:47:23;;;;;;;11.70;2.72;;;;;;;;;;5053920;28;20104;-87
2023/11/14 12:49:49;;;;;;;14.10;3.10;;;;;;;;;;5053714;28;20051;-87
2023/11/14 12:52:14;;;;;;;16.58;2.38;;;;;;;;;;5053624;28;20187;-86
2023/11/14 12:54:41;;;;;;;19.15;2.58;;;;;;;;;;5038507;28;20017;-87
2023/11/14 12:57:06;;;;;;;7.70;1.45;;;;;;;;;;5052338;28;20738;-87
2023/11/14 12:59:31;;;;;;;13.52;1.88;;;;;;;;;;5052853;28;20017;-87
2023/11/14 13:01:57;;;;;;;13.98;3.20;;;;;;;;;;5052844;28;20119;-87
2023/11/14 13:04:22;;;;;;;11.88;2.30;;;;;;;;;;5060353;28;20028;-87
2023/11/14 13:06:50;;;;;;;9.80;2.28;;;;;;;;;;5054151;28;20025;-86
2023/11/14 13:09:16;;;;;;;7.25;1.58;;;;;;;;;;5052801;28;20439;-87
2023/11/14 13:11:41;;;;;;;18.23;2.50;;;;;;;;;;5056365;28;20032;-87
2023/11/14 13:14:06;;;;;;;20.90;2.35;;;;;;;;;;5052856;28;20021;-87
2023/11/14 13:16:32;;;;;;;7.65;1.50;;;;;;;;;;5053140;28;20094;-87
2023/11/14 13:18:57;;;;;;;17.15;2.05;;;;;;;;;;5053558;28;20013;-87
2023/11/14 13:21:24;;;;;;;10.95;1.73;;;;;;;;;;5052785;28;20035;-87
2023/11/14 13:23:49;;;;;;;8.13;1.27;;;;;;;;;;5054378;28;20389;-86
2023/11/14 13:26:15;;;;;;;7.28;1.33;;;;;;;;;;5052534;28;20104;-87
2023/11/14 13:28:40;;;;;;;8.75;1.80;;;;;;;;;;5054309;28;20024;-86
2023/11/14 13:31:06;;;;;;;9.85;1.50;;;;;;;;;;5054514;28;20009;-87
2023/11/14 13:33:32;;;;;;;4.30;1.20;;;;;;;;;;5053331;28;20018;-88
2023/11/14 13:35:57;;;;;;;5.28;1.17;;;;;;;;;;5053006;28;20019;-87
2023/11/14 13:38:26;;;;;;;9.23;1.63;;;;;;;;;;5054371;28;20071;-86
2023/11/14 13:40:52;;;;;;;6.68;1.80;;;;;;;;;;5053242;28;20108;-87
2023/11/14 13:43:18;;;;;;;6.68;1.88;;;;;;;;;;5053218;28;20762;-88
2023/11/14 13:45:47;;;;;;;6.03;1.50;;;;;;;;;;5053033;28;20051;-88
2023/11/14 13:48:12;;;;;;;6.18;1.00;;;;;;;;;;5052802;28;20025;-87
2023/11/14 13:50:37;;;;;;;3.22;1.00;;;;;;;;;;5052899;28;20028;-88
2023/11/14 13:53:04;;;;;;;4.72;1.02;;;;;;;;;;5054220;28;20017;-87
2023/11/14 13:55:29;;;;;;;9.10;1.30;;;;;;;;;;5052297;28;20380;-87
2023/11/14 13:57:55;;;;;;;6.78;0.93;;;;;;;;;;5052893;28;20112;-88
2023/11/14 14:00:24;;;;;;;7.78;1.63;;;;;;;;;;5052972;28;20067;-87
2023/11/14 14:02:50;;;;;;;5.03;0.75;;;;;;;;;;5050036;28;20083;-86
2023/11/14 14:05:15;;;;;;;5.63;1.02;;;;;;;;;;5042576;28;20029;-87
2023/11/14 14:07:44;;;;;;;6.50;0.75;;;;;;;;;;5053834;28;20035;-88
2023/11/14 14:10:12;;;;;;;5.50;1.63;;;;;;;;;;5052245;28;20021;-88
2023/11/14 14:12:45;;;;;;;2.13;0.85;;;;;;;;;;5052601;28;20088;-87
2023/11/14 14:15:11;;;;;;;5.50;1.20;;;;;;;;;;5039251;28;20024;-87
2023/11/14 14:17:40;;;;;;;13.05;1.42;;;;;;;;;;5053651;28;20020;-88
2023/11/14 14:20:10;;;;;;;9.05;2.08;;;;;;;;;;5066118;28;20025;-87
2023/11/14 14:22:35;;;;;;;2.72;1.20;;;;;;;;;;5052456;28;20062;-88
2023/11/14 14:25:01;;;;;;;8.15;1.58;;;;;;;;;;5052207;28;20024;-87
2023/11/14 14:27:26;;;;;;;4.60;1.50;;;;;;;;;;5053244;28;20108;-87